createdAt,value
2023-01-25T00:02:03.620Z,25.23
2023-01-25T00:04:32.722Z,22.25
2023-01-25T00:07:01.914Z,20.95
2023-01-25T00:09:30.454Z,18.80
2023-01-25T00:12:00.443Z,25.55
2023-01-25T00:14:28.975Z,25.95
2023-01-25T00:16:58.120Z,24.77
2023-01-25T00:19:26.843Z,23.85
2023-01-25T00:21:55.478Z,26.15
2023-01-25T00:24:26.005Z,27.15
2023-01-25T00:26:54.617Z,31.73
2023-01-25T00:29:24.564Z,31.17
2023-01-25T00:32:03.609Z,26.17
2023-01-25T00:34:46.922Z,29.98
2023-01-25T00:37:21.890Z,27.65
2023-01-25T00:39:50.590Z,28.60
2023-01-25T00:42:20.712Z,28.27
2023-01-25T00:44:51.066Z,32.13
2023-01-25T00:47:21.669Z,31.83
2023-01-25T00:49:50.414Z,28.17
2023-01-25T00:52:18.847Z,30.05
2023-01-25T00:54:47.446Z,32.88
2023-01-25T00:57:16.069Z,29.33
2023-01-25T00:59:46.146Z,30.40
2023-01-25T01:02:17.955Z,28.63
2023-01-25T01:04:46.621Z,29.35
2023-01-25T01:07:16.484Z,27.92
2023-01-25T01:09:45.425Z,28.08
2023-01-25T01:12:13.992Z,30.20
2023-01-25T01:14:43.910Z,30.95
2023-01-25T01:17:12.449Z,26.23
2023-01-25T01:19:43.307Z,29.25
2023-01-25T01:22:11.842Z,30.65
2023-01-25T01:24:40.495Z,29.45
2023-01-25T01:27:10.530Z,30.80
2023-01-25T01:29:39.153Z,29.63
2023-01-25T01:32:07.841Z,32.38
2023-01-25T01:34:36.775Z,32.13
2023-01-25T01:37:06.767Z,31.27
2023-01-25T01:39:36.220Z,29.45
2023-01-25T01:42:05.216Z,35.60
2023-01-25T01:44:48.946Z,32.28
2023-01-25T01:47:23.107Z,38.55
2023-01-25T01:50:00.909Z,34.42
2023-01-25T01:52:36.772Z,33.53
2023-01-25T01:55:10.500Z,38.40
2023-01-25T01:57:44.922Z,34.45
2023-01-25T02:00:17.437Z,37.97
2023-01-25T02:02:50.473Z,36.80
2023-01-25T02:05:26.739Z,34.97
2023-01-25T02:07:57.611Z,33.53
2023-01-25T02:10:28.410Z,33.33
2023-01-25T02:12:59.807Z,36.25
2023-01-25T02:15:33.851Z,33.75
2023-01-25T02:18:04.667Z,38.67
2023-01-25T02:20:38.629Z,35.92
2023-01-25T02:23:17.557Z,34.05
2023-01-25T02:25:47.970Z,40.10
2023-01-25T02:28:22.540Z,33.27
2023-01-25T02:30:51.451Z,35.45
2023-01-25T02:33:20.543Z,36.35
2023-01-25T02:35:53.963Z,34.42
2023-01-25T02:38:23.281Z,32.58
2023-01-25T02:41:00.538Z,32.15
2023-01-25T02:43:33.779Z,33.47
2023-01-25T02:46:13.216Z,34.05
2023-01-25T02:48:46.452Z,31.77
2023-01-25T02:51:15.350Z,32.90
2023-01-25T02:53:44.084Z,27.73
2023-01-25T02:56:13.939Z,32.78
2023-01-25T02:58:42.704Z,32.72
2023-01-25T03:01:12.375Z,30.02
2023-01-25T03:03:43.097Z,30.15
2023-01-25T03:06:12.085Z,30.13
2023-01-25T03:08:41.751Z,26.58
2023-01-25T03:11:10.561Z,27.60
2023-01-25T03:13:40.870Z,25.10
2023-01-25T03:16:12.202Z,29.58
2023-01-25T03:18:43.403Z,23.63
2023-01-25T03:21:15.375Z,28.65
2023-01-25T03:23:45.449Z,24.30
2023-01-25T03:26:18.623Z,23.55
2023-01-25T03:29:06.520Z,25.25
2023-01-25T03:31:38.772Z,24.83
2023-01-25T03:34:07.583Z,24.50
2023-01-25T03:36:40.715Z,20.70
2023-01-25T03:39:09.258Z,21.42
2023-01-25T03:41:42.316Z,23.95
2023-01-25T03:44:15.200Z,22.73
2023-01-25T03:46:46.094Z,25.92
2023-01-25T03:49:14.850Z,23.70
2023-01-25T03:51:43.827Z,23.13
2023-01-25T03:54:12.454Z,22.25
2023-01-25T03:56:42.142Z,23.60
2023-01-25T03:59:21.148Z,21.48
2023-01-25T04:01:50.341Z,23.63
2023-01-25T04:04:19.300Z,20.98
2023-01-25T04:06:49.833Z,19.73
2023-01-25T04:09:18.590Z,20.33
2023-01-25T04:11:52.141Z,21.17
2023-01-25T04:14:31.979Z,20.60
2023-01-25T04:17:11.020Z,17.58
2023-01-25T04:19:59.728Z,15.82
2023-01-25T04:22:35.424Z,20.55
2023-01-25T04:25:06.749Z,18.10
2023-01-25T04:27:35.838Z,17.80
2023-01-25T04:30:16.522Z,19.90
2023-01-25T04:32:46.947Z,19.25
2023-01-25T04:35:33.729Z,17.30
2023-01-25T04:38:04.392Z,16.40
2023-01-25T04:40:40.187Z,16.40
2023-01-25T04:47:35.539Z,15.98
2023-01-25T04:50:07.324Z,13.93
2023-01-25T04:52:36.391Z,15.48
2023-01-25T04:55:05.134Z,13.68
2023-01-25T04:57:41.235Z,14.35
2023-01-25T05:00:12.083Z,11.77
2023-01-25T05:02:42.156Z,14.25
2023-01-25T05:05:11.857Z,12.48
2023-01-25T05:07:41.085Z,11.27
2023-01-25T05:10:12.044Z,13.13
2023-01-25T05:12:47.795Z,11.57
2023-01-25T05:15:16.490Z,12.20
2023-01-25T05:17:46.550Z,14.18
2023-01-25T05:20:15.349Z,11.63
2023-01-25T05:22:44.059Z,11.32
2023-01-25T05:25:26.482Z,10.40
2023-01-25T05:27:55.265Z,10.85
2023-01-25T05:30:51.516Z,12.48
2023-01-25T05:33:27.954Z,10.50
2023-01-25T05:35:56.500Z,9.90
2023-01-25T05:38:26.169Z,9.25
2023-01-25T05:40:58.889Z,10.20
2023-01-25T05:43:27.513Z,9.25
2023-01-25T05:45:56.364Z,9.60
2023-01-25T05:48:25.558Z,9.50
2023-01-25T05:50:58.926Z,9.38
2023-01-25T05:53:27.742Z,9.85
2023-01-25T05:55:56.568Z,12.43
2023-01-25T05:58:25.405Z,9.50
2023-01-25T06:00:55.094Z,9.65
2023-01-25T06:03:35.564Z,9.10
2023-01-25T06:06:06.669Z,10.98
2023-01-25T06:08:36.975Z,10.90
2023-01-25T06:11:08.817Z,10.35
2023-01-25T06:13:39.635Z,10.13
2023-01-25T06:16:08.910Z,11.88
2023-01-25T06:18:44.917Z,10.57
2023-01-25T06:21:37.205Z,7.15
2023-01-25T06:24:06.625Z,8.85
2023-01-25T06:26:35.794Z,9.55
2023-01-25T06:29:06.708Z,9.45
2023-01-25T06:31:35.475Z,10.80
2023-01-25T06:34:06.485Z,11.00
2023-01-25T06:36:37.461Z,11.57
2023-01-25T06:39:06.877Z,11.43
2023-01-25T06:41:35.782Z,9.82
2023-01-25T06:44:05.251Z,8.00
2023-01-25T06:46:34.196Z,13.10
2023-01-25T06:49:03.170Z,9.55
2023-01-25T06:51:31.692Z,10.23
2023-01-25T06:54:04.925Z,9.20
2023-01-25T06:56:34.016Z,9.93
2023-01-25T06:59:02.600Z,9.75
2023-01-25T07:01:31.400Z,10.65
2023-01-25T07:04:00.972Z,10.05
2023-01-25T07:06:35.244Z,11.55
2023-01-25T07:09:06.666Z,11.05
2023-01-25T07:11:35.681Z,11.38
2023-01-25T07:14:06.000Z,11.43
2023-01-25T07:16:38.760Z,11.45
2023-01-25T07:19:08.506Z,11.43
2023-01-25T07:21:37.075Z,13.30
2023-01-25T07:24:07.954Z,14.30
2023-01-25T07:26:36.505Z,13.50
2023-01-25T07:29:05.408Z,13.75
2023-01-25T07:31:34.363Z,14.25
2023-01-25T07:34:03.127Z,12.88
2023-01-25T07:36:31.679Z,14.88
2023-01-25T07:39:00.158Z,13.82
2023-01-25T07:41:30.176Z,15.43
2023-01-25T07:43:58.500Z,13.07
2023-01-25T07:46:50.407Z,16.48
2023-01-25T07:49:18.979Z,20.58
2023-01-25T07:51:47.476Z,14.73
2023-01-25T07:54:16.448Z,14.90
2023-01-25T07:56:46.437Z,14.70
2023-01-25T07:59:15.672Z,17.27
2023-01-25T08:01:44.357Z,15.50
2023-01-25T08:04:13.254Z,14.88
2023-01-25T08:06:41.794Z,15.85
2023-01-25T08:09:13.528Z,16.58
2023-01-25T08:14:13.194Z,18.98
2023-01-25T08:16:41.989Z,16.17
2023-01-25T08:19:11.769Z,17.83
2023-01-25T08:21:40.753Z,19.38
2023-01-25T08:24:10.515Z,17.38
2023-01-25T08:26:39.719Z,17.08
2023-01-25T08:29:08.956Z,19.80
2023-01-25T08:31:41.864Z,19.48
2023-01-25T08:34:11.643Z,20.23
2023-01-25T08:36:40.947Z,19.85
2023-01-25T08:39:12.086Z,19.23
2023-01-25T08:41:42.790Z,20.67
2023-01-25T08:44:11.778Z,19.83
2023-01-25T08:46:42.092Z,18.73
2023-01-25T08:49:11.419Z,19.17
2023-01-25T08:51:39.956Z,19.80
2023-01-25T08:54:14.550Z,19.27
2023-01-25T08:56:43.929Z,21.17
2023-01-25T08:59:13.818Z,16.33
2023-01-25T09:01:43.762Z,21.48
2023-01-25T09:04:12.378Z,22.52
2023-01-25T09:06:40.875Z,18.02
2023-01-25T09:09:09.823Z,21.30
2023-01-25T09:11:40.506Z,22.35
2023-01-25T09:14:09.170Z,24.17
2023-01-25T09:16:37.790Z,21.83
2023-01-25T09:19:08.095Z,24.13
2023-01-25T09:21:37.369Z,20.52
2023-01-25T09:24:07.715Z,23.52
2023-01-25T09:26:40.646Z,21.30
2023-01-25T09:29:11.635Z,23.95
2023-01-25T09:31:43.977Z,23.40
2023-01-25T09:34:34.920Z,23.00
2023-01-25T09:37:04.159Z,22.05
2023-01-25T09:39:33.343Z,22.42
2023-01-25T09:42:37.922Z,23.63
2023-01-25T09:45:22.746Z,21.85
2023-01-25T09:47:59.405Z,23.67
2023-01-25T09:50:39.094Z,21.17
2023-01-25T09:53:33.304Z,23.13
2023-01-25T09:56:11.004Z,24.70
2023-01-25T09:58:44.827Z,24.55
2023-01-25T10:01:37.675Z,23.65
2023-01-25T10:04:15.886Z,27.80
2023-01-25T10:06:59.761Z,22.77
2023-01-25T10:09:41.087Z,21.48
2023-01-25T10:12:17.423Z,23.98
2023-01-25T10:14:46.083Z,25.40
2023-01-25T10:17:22.029Z,25.08
2023-01-25T10:20:04.857Z,21.50
2023-01-25T10:22:41.033Z,28.30
2023-01-25T10:25:28.990Z,24.30
2023-01-25T10:28:10.294Z,21.80
2023-01-25T10:30:46.785Z,26.33
2023-01-25T10:33:19.767Z,20.48
2023-01-25T10:35:50.805Z,25.98
2023-01-25T10:38:26.720Z,21.47
2023-01-25T10:41:00.640Z,25.77
2023-01-25T10:43:29.870Z,21.58
2023-01-25T10:45:58.594Z,21.70
2023-01-25T10:48:33.246Z,20.75
2023-01-25T10:51:02.006Z,20.77
2023-01-25T10:53:34.505Z,19.15
2023-01-25T10:56:12.619Z,20.88
2023-01-25T10:58:43.699Z,17.20
2023-01-25T11:01:15.245Z,23.80
2023-01-25T11:06:14.391Z,19.58
2023-01-25T11:08:44.583Z,19.67
2023-01-25T11:11:28.316Z,17.65
2023-01-25T11:13:56.863Z,18.55
2023-01-25T11:16:34.576Z,20.45
2023-01-25T11:19:04.524Z,21.52
2023-01-25T11:21:35.590Z,20.52
2023-01-25T11:24:18.814Z,17.90
2023-01-25T11:26:47.911Z,21.15
2023-01-25T11:29:18.632Z,21.95
2023-01-25T11:31:49.745Z,23.10
2023-01-25T11:34:20.902Z,25.73
2023-01-25T11:37:01.442Z,23.30
2023-01-25T11:39:43.664Z,19.17
2023-01-25T11:42:28.225Z,23.45
2023-01-25T11:45:14.380Z,21.55
2023-01-25T11:47:58.111Z,22.48
2023-01-25T11:50:36.112Z,19.20
2023-01-25T11:53:27.962Z,21.83
2023-01-25T11:56:07.837Z,21.38
2023-01-25T11:59:01.252Z,18.92
2023-01-25T12:01:43.864Z,18.85
2023-01-25T12:04:40.452Z,21.27
2023-01-25T12:07:16.233Z,19.77
2023-01-25T12:10:01.228Z,22.00
2023-01-25T12:12:44.735Z,23.40
2023-01-25T12:15:29.552Z,21.50
2023-01-25T12:18:20.421Z,22.88
2023-01-25T12:21:07.838Z,21.05
2023-01-25T12:23:48.790Z,22.80
2023-01-25T12:26:29.877Z,25.00
2023-01-25T12:29:06.877Z,23.90
2023-01-25T12:31:44.815Z,23.00
2023-01-25T12:34:20.935Z,21.00
2023-01-25T12:36:51.661Z,20.73
2023-01-25T12:39:24.807Z,26.95
2023-01-25T12:41:57.541Z,21.42
2023-01-25T12:44:32.322Z,20.95
2023-01-25T12:47:08.042Z,19.27
2023-01-25T12:49:46.578Z,21.33
2023-01-25T12:52:23.559Z,20.35
2023-01-25T12:54:56.914Z,21.25
2023-01-25T12:57:31.111Z,19.30
2023-01-25T13:00:09.875Z,26.50
2023-01-25T13:02:56.540Z,23.48
2023-01-25T13:05:37.646Z,23.80
2023-01-25T13:08:30.874Z,24.02
2023-01-25T13:11:11.899Z,22.27
2023-01-25T13:13:40.490Z,21.20
2023-01-25T13:16:37.909Z,21.00
2023-01-25T13:19:20.776Z,22.17
2023-01-25T13:21:52.609Z,23.15
2023-01-25T13:24:24.368Z,23.52
2023-01-25T13:27:01.925Z,24.20
2023-01-25T13:29:59.167Z,21.70
2023-01-25T13:33:03.708Z,23.80
2023-01-25T13:35:36.796Z,22.73
2023-01-25T13:38:26.563Z,23.15
2023-01-25T13:41:14.569Z,24.42
2023-01-25T13:43:45.597Z,22.95
2023-01-25T13:46:19.110Z,22.95
2023-01-25T13:49:02.962Z,22.65
2023-01-25T13:51:37.880Z,26.58
2023-01-25T13:54:06.987Z,29.90
2023-01-25T13:56:37.548Z,22.98
2023-01-25T13:59:05.977Z,22.77
2023-01-25T14:01:37.444Z,22.52
2023-01-25T14:04:06.795Z,24.35
2023-01-25T14:06:40.577Z,23.17
2023-01-25T14:09:16.777Z,20.70
2023-01-25T14:11:50.921Z,22.92
2023-01-25T14:14:22.213Z,22.02
2023-01-25T14:17:03.125Z,20.98
2023-01-25T14:19:33.633Z,22.73
2023-01-25T14:22:14.900Z,20.25
2023-01-25T14:24:43.523Z,19.52
2023-01-25T14:27:15.495Z,21.35
2023-01-25T14:29:49.869Z,25.50
2023-01-25T14:32:21.827Z,21.75
2023-01-25T14:37:22.338Z,23.95
2023-01-25T14:39:53.178Z,20.35
2023-01-25T14:42:21.762Z,20.83
2023-01-25T14:44:50.366Z,22.42
2023-01-25T14:47:23.906Z,24.67
2023-01-25T14:49:52.281Z,23.35
2023-01-25T14:52:26.038Z,24.58
2023-01-25T14:54:57.593Z,24.65
2023-01-25T14:57:35.864Z,21.48
2023-01-25T15:00:06.674Z,23.40
2023-01-25T15:02:40.450Z,24.60
2023-01-25T15:05:19.659Z,21.80
2023-01-25T15:07:51.256Z,22.20
2023-01-25T15:10:23.295Z,26.95
2023-01-25T15:13:13.570Z,26.13
2023-01-25T15:15:55.002Z,25.10
2023-01-25T15:18:43.637Z,25.77
2023-01-25T15:21:14.113Z,25.92
2023-01-25T15:23:45.675Z,24.40
2023-01-25T15:26:21.016Z,23.60
2023-01-25T15:28:50.052Z,24.85
2023-01-25T15:31:20.273Z,24.35
2023-01-25T15:33:49.389Z,29.90
2023-01-25T15:36:18.735Z,25.20
2023-01-25T15:38:48.689Z,29.42
2023-01-25T15:41:21.557Z,26.92
2023-01-25T15:43:51.122Z,30.23
2023-01-25T15:46:21.205Z,29.38
2023-01-25T15:48:51.485Z,30.75
2023-01-25T15:51:20.263Z,28.50
2023-01-25T15:53:50.355Z,31.80
2023-01-25T15:56:21.009Z,27.98
2023-01-25T15:58:52.909Z,29.70
2023-01-25T16:01:22.357Z,29.40
2023-01-25T16:03:51.115Z,30.40
2023-01-25T16:06:37.991Z,26.88
2023-01-25T16:09:15.686Z,33.05
2023-01-25T16:11:44.638Z,28.27
2023-01-25T16:14:13.333Z,32.75
2023-01-25T16:16:44.273Z,30.25
2023-01-25T16:19:14.498Z,28.00
2023-01-25T16:21:43.686Z,28.27
2023-01-25T16:24:13.732Z,30.25
2023-01-25T16:26:46.853Z,32.70
2023-01-25T16:29:15.281Z,29.13
2023-01-25T16:31:43.779Z,28.60
2023-01-25T16:34:13.527Z,30.27
2023-01-25T16:36:43.882Z,31.30
2023-01-25T16:39:20.191Z,33.90
2023-01-25T16:41:49.583Z,34.60
2023-01-25T16:44:18.175Z,35.08
2023-01-25T16:46:47.553Z,34.60
2023-01-25T16:49:18.813Z,31.45
2023-01-25T16:51:49.147Z,31.20
2023-01-25T16:54:20.011Z,33.38
2023-01-25T16:56:49.138Z,32.53
2023-01-25T16:59:18.394Z,33.70
2023-01-25T17:01:47.699Z,36.33
2023-01-25T17:04:16.877Z,37.85
2023-01-25T17:06:47.309Z,32.42
2023-01-25T17:09:24.065Z,28.30
2023-01-25T17:11:53.588Z,39.95
2023-01-25T17:14:22.335Z,39.42
2023-01-25T17:16:52.165Z,38.70
2023-01-25T17:19:21.523Z,36.83
2023-01-25T17:21:50.094Z,40.10
2023-01-25T17:24:22.436Z,40.88
2023-01-25T17:26:51.647Z,37.58
2023-01-25T17:29:20.130Z,39.60
2023-01-25T17:31:49.494Z,36.10
2023-01-25T17:34:19.925Z,36.58
2023-01-25T17:36:50.857Z,33.08
2023-01-25T17:39:22.680Z,31.77
2023-01-25T17:41:52.101Z,36.53
2023-01-25T17:44:21.836Z,35.42
2023-01-25T17:46:51.546Z,34.92
2023-01-25T17:49:22.641Z,33.88
2023-01-25T17:51:51.895Z,31.15
2023-01-25T17:54:22.031Z,37.83
2023-01-25T17:56:50.339Z,40.88
2023-01-25T17:59:18.606Z,37.83
2023-01-25T18:01:47.163Z,37.42
2023-01-25T18:04:17.733Z,37.30
2023-01-25T18:06:46.451Z,39.03
2023-01-25T18:09:14.869Z,39.38
2023-01-25T18:11:45.116Z,38.40
2023-01-25T18:14:16.925Z,37.75
2023-01-25T18:16:45.701Z,35.50
2023-01-25T18:19:14.234Z,35.55
2023-01-25T18:21:43.488Z,38.55
2023-01-25T18:24:26.118Z,38.92
2023-01-25T18:27:02.237Z,38.75
2023-01-25T18:29:48.731Z,41.10
2023-01-25T18:32:17.377Z,38.17
2023-01-25T18:34:48.228Z,46.03
2023-01-25T18:37:21.171Z,44.97
2023-01-25T18:39:54.258Z,69.40
2023-01-25T18:42:26.033Z,68.55
2023-01-25T18:47:24.366Z,58.95
2023-01-25T18:49:54.235Z,59.20
2023-01-25T18:52:24.174Z,58.03
2023-01-25T18:54:52.822Z,57.42
2023-01-25T18:57:23.375Z,58.05
2023-01-25T18:59:52.180Z,56.40
2023-01-25T19:02:23.115Z,54.08
2023-01-25T19:04:51.532Z,61.03
2023-01-25T19:07:19.892Z,56.28
2023-01-25T19:09:48.593Z,44.38
2023-01-25T19:12:17.512Z,38.28
2023-01-25T19:14:47.798Z,41.35
2023-01-25T19:17:16.274Z,39.70
2023-01-25T19:19:44.714Z,42.05
2023-01-25T19:22:13.055Z,45.33
2023-01-25T19:24:41.327Z,47.30
2023-01-25T19:27:09.859Z,41.78
2023-01-25T19:29:38.335Z,42.80
2023-01-25T19:32:10.852Z,35.78
2023-01-25T19:34:39.784Z,38.10
2023-01-25T19:37:08.276Z,36.63
2023-01-25T19:39:37.263Z,38.17
2023-01-25T19:42:06.941Z,40.05
2023-01-25T19:44:35.345Z,49.28
2023-01-25T19:47:03.952Z,54.72
2023-01-25T19:49:33.885Z,43.78
2023-01-25T19:52:03.558Z,47.20
2023-01-25T19:54:32.114Z,51.67
2023-01-25T19:57:01.231Z,116.00
2023-01-25T19:59:29.835Z,101.43
2023-01-25T20:01:59.086Z,85.38
2023-01-25T20:04:27.521Z,99.00
2023-01-25T20:06:57.371Z,100.40
2023-01-25T20:09:28.309Z,84.85
2023-01-25T20:11:57.893Z,89.97
2023-01-25T20:14:27.953Z,77.43
2023-01-25T20:16:56.254Z,82.97
2023-01-25T20:19:24.570Z,73.85
2023-01-25T20:21:53.060Z,66.65
2023-01-25T20:24:25.153Z,62.33
2023-01-25T20:26:54.838Z,60.90
2023-01-25T20:29:24.203Z,53.05
2023-01-25T20:31:53.195Z,55.05
2023-01-25T20:34:23.284Z,47.63
2023-01-25T20:36:52.557Z,48.28
2023-01-25T20:39:22.721Z,49.17
2023-01-25T20:41:53.777Z,47.15
2023-01-25T20:44:22.602Z,33.78
2023-01-25T20:46:52.798Z,46.22
2023-01-25T20:49:21.281Z,48.67
2023-01-25T20:51:49.716Z,48.92
2023-01-25T20:54:20.776Z,46.10
2023-01-25T20:56:50.505Z,46.22
2023-01-25T20:59:20.878Z,40.45
2023-01-25T21:01:50.472Z,42.67
2023-01-25T21:04:19.124Z,47.40
2023-01-25T21:06:47.580Z,44.63
2023-01-25T21:09:16.298Z,47.95
2023-01-25T21:11:44.958Z,40.72
2023-01-25T21:14:13.380Z,42.30
2023-01-25T21:16:43.236Z,47.25
2023-01-25T21:19:11.946Z,46.10
2023-01-25T21:21:40.506Z,44.42
2023-01-25T21:24:10.361Z,44.13
2023-01-25T21:26:39.495Z,40.75
2023-01-25T21:29:08.866Z,50.45
2023-01-25T21:31:42.549Z,51.65
2023-01-25T21:34:12.557Z,62.97
2023-01-25T21:36:40.924Z,58.70
2023-01-25T21:39:09.597Z,61.78
2023-01-25T21:41:37.977Z,55.88
2023-01-25T21:44:23.721Z,59.13
2023-01-25T21:47:27.421Z,62.85
2023-01-25T21:50:12.864Z,65.07
2023-01-25T21:52:41.352Z,53.08
2023-01-25T21:55:10.955Z,49.97
2023-01-25T21:57:45.741Z,44.00
2023-01-25T22:00:17.171Z,44.88
2023-01-25T22:02:45.926Z,49.63
2023-01-25T22:05:15.756Z,47.05
2023-01-25T22:07:44.287Z,44.25
2023-01-25T22:10:13.495Z,51.72
2023-01-25T22:12:41.842Z,47.83
2023-01-25T22:15:10.565Z,49.83
2023-01-25T22:17:38.937Z,46.83
2023-01-25T22:20:08.760Z,47.45
2023-01-25T22:22:38.778Z,45.08
2023-01-25T22:25:07.913Z,40.45
2023-01-25T22:27:47.410Z,42.13
2023-01-25T22:30:15.749Z,43.70
2023-01-25T22:32:44.056Z,48.38
2023-01-25T22:35:12.473Z,43.83
2023-01-25T22:37:42.043Z,43.58
2023-01-25T22:40:11.900Z,49.65
2023-01-25T22:42:40.469Z,42.22
2023-01-25T22:45:09.549Z,43.97
2023-01-25T22:47:37.897Z,46.08
2023-01-25T22:50:07.091Z,47.78
2023-01-25T22:52:35.514Z,50.53
2023-01-25T22:55:06.070Z,52.17
2023-01-25T22:57:34.545Z,44.40
2023-01-25T23:00:03.073Z,46.15
2023-01-25T23:02:32.247Z,54.05
2023-01-25T23:05:00.619Z,55.13
2023-01-25T23:07:29.340Z,55.35
2023-01-25T23:09:57.826Z,55.80
2023-01-25T23:12:27.734Z,51.50
2023-01-25T23:14:59.231Z,50.05
2023-01-25T23:17:45.319Z,50.08
2023-01-25T23:20:14.522Z,48.40
2023-01-25T23:22:43.017Z,50.42
2023-01-25T23:25:13.145Z,55.75
2023-01-25T23:27:42.855Z,53.92
2023-01-25T23:30:12.578Z,49.78
2023-01-25T23:32:49.312Z,60.83
2023-01-25T23:35:20.640Z,53.60
2023-01-25T23:37:49.083Z,53.83
2023-01-25T23:40:18.025Z,54.88
2023-01-25T23:42:48.452Z,55.30
2023-01-25T23:45:17.376Z,52.17
2023-01-25T23:47:46.097Z,59.08
2023-01-25T23:50:14.418Z,53.10
2023-01-25T23:52:42.584Z,64.63
2023-01-25T23:55:12.314Z,55.75
2023-01-25T23:57:40.604Z,53.08
